Anderson, Texas
Current Conditions -  °F | °C
As of 6:53 PM on Wednesday 22 Oct 2014 (Local Time) from KCLL Reporting Station
Clear Clear  
Wind Chill: 24°   Ceiling: Unl
Heat Index: 24°   Visibility: 10mi
Dew Point: 13°   Wind: 6mph
Humidity: 51%   Direction: 60°ENE
Pressure: 30.06"   Gusts: NA
Location:  30.49°N, 95.99°W
Report Text: KCLL 222353Z 06005KT 10SM CLR 24/13 A3006 RMK AO2 SLP175 60000 T02390133 10278 20239 53003
Loading
Personal Weather Stations






























Interactive Weather Map
Tropical Storm Tracking
New forecast layout! Learn more

10-Day Weather Forecast

Advertisements
Track Severe Weather on mobile